sensor_id;sensor_type;location;lat;lon;timestamp;P1;durP1;ratioP1;P2;durP2;ratioP2
60068;SDS011;45945;53.350;55.922;2023-05-07T00:00:34;11.13;;;4.50;;
60068;SDS011;45945;53.350;55.922;2023-05-07T00:01:35;8.80;;;4.30;;
60068;SDS011;45945;53.350;55.922;2023-05-07T00:02:36;11.98;;;4.72;;
60068;SDS011;45945;53.350;55.922;2023-05-07T00:03:38;11.30;;;4.60;;
60068;SDS011;45945;53.350;55.922;2023-05-07T00:04:39;10.82;;;4.72;;
60068;SDS011;45945;53.350;55.922;2023-05-07T00:05:40;8.65;;;4.60;;
60068;SDS011;45945;53.350;55.922;2023-05-07T00:06:42;10.57;;;4.38;;
60068;SDS011;45945;53.350;55.922;2023-05-07T00:07:42;10.93;;;4.45;;
60068;SDS011;45945;53.350;55.922;2023-05-07T00:08:43;11.65;;;4.20;;
60068;SDS011;45945;53.350;55.922;2023-05-07T00:09:44;10.80;;;4.13;;
60068;SDS011;45945;53.350;55.922;2023-05-07T00:10:45;11.77;;;4.13;;
60068;SDS011;45945;53.350;55.922;2023-05-07T00:11:47;11.02;;;4.78;;
60068;SDS011;45945;53.350;55.922;2023-05-07T00:12:47;11.77;;;4.35;;
60068;SDS011;45945;53.350;55.922;2023-05-07T00:13:49;11.77;;;4.40;;
60068;SDS011;45945;53.350;55.922;2023-05-07T00:14:50;12.27;;;4.40;;
60068;SDS011;45945;53.350;55.922;2023-05-07T00:15:51;13.75;;;4.68;;
60068;SDS011;45945;53.350;55.922;2023-05-07T00:16:52;10.45;;;4.75;;
60068;SDS011;45945;53.350;55.922;2023-05-07T00:17:53;11.10;;;4.55;;
60068;SDS011;45945;53.350;55.922;2023-05-07T00:18:54;13.30;;;4.18;;
60068;SDS011;45945;53.350;55.922;2023-05-07T00:19:58;11.20;;;3.80;;
60068;SDS011;45945;53.350;55.922;2023-05-07T00:20:59;9.98;;;4.50;;
60068;SDS011;45945;53.350;55.922;2023-05-07T00:22:00;14.98;;;4.40;;
60068;SDS011;45945;53.350;55.922;2023-05-07T00:23:01;11.70;;;4.35;;
60068;SDS011;45945;53.350;55.922;2023-05-07T00:24:02;10.73;;;3.88;;
60068;SDS011;45945;53.350;55.922;2023-05-07T00:25:03;12.57;;;5.15;;
60068;SDS011;45945;53.350;55.922;2023-05-07T00:26:05;12.93;;;4.45;;
60068;SDS011;45945;53.350;55.922;2023-05-07T00:27:05;12.70;;;4.40;;
60068;SDS011;45945;53.350;55.922;2023-05-07T00:28:06;11.48;;;4.00;;
60068;SDS011;45945;53.350;55.922;2023-05-07T00:29:07;11.13;;;4.25;;
60068;SDS011;45945;53.350;55.922;2023-05-07T00:30:08;11.90;;;4.25;;
60068;SDS011;45945;53.350;55.922;2023-05-07T00:31:10;13.40;;;3.70;;
60068;SDS011;45945;53.350;55.922;2023-05-07T00:32:11;11.90;;;4.13;;
60068;SDS011;45945;53.350;55.922;2023-05-07T00:33:11;12.85;;;4.10;;
60068;SDS011;45945;53.350;55.922;2023-05-07T00:34:12;16.20;;;4.45;;
60068;SDS011;45945;53.350;55.922;2023-05-07T00:35:13;15.77;;;4.15;;
60068;SDS011;45945;53.350;55.922;2023-05-07T00:36:14;15.88;;;4.45;;
60068;SDS011;45945;53.350;55.922;2023-05-07T00:37:15;13.93;;;4.57;;
60068;SDS011;45945;53.350;55.922;2023-05-07T00:38:16;16.20;;;4.32;;
60068;SDS011;45945;53.350;55.922;2023-05-07T00:39:17;12.88;;;4.50;;
60068;SDS011;45945;53.350;55.922;2023-05-07T00:40:18;13.60;;;4.38;;
60068;SDS011;45945;53.350;55.922;2023-05-07T00:41:18;16.42;;;4.90;;
60068;SDS011;45945;53.350;55.922;2023-05-07T00:42:20;18.98;;;4.65;;
60068;SDS011;45945;53.350;55.922;2023-05-07T00:43:21;14.90;;;4.75;;
60068;SDS011;45945;53.350;55.922;2023-05-07T00:44:22;13.43;;;4.38;;
60068;SDS011;45945;53.350;55.922;2023-05-07T00:45:26;12.93;;;4.45;;
60068;SDS011;45945;53.350;55.922;2023-05-07T00:46:27;16.60;;;4.40;;
60068;SDS011;45945;53.350;55.922;2023-05-07T00:47:28;20.17;;;5.13;;
60068;SDS011;45945;53.350;55.922;2023-05-07T00:48:29;16.95;;;4.15;;
60068;SDS011;45945;53.350;55.922;2023-05-07T00:49:41;17.95;;;5.35;;
60068;SDS011;45945;53.350;55.922;2023-05-07T00:50:42;12.70;;;4.45;;
60068;SDS011;45945;53.350;55.922;2023-05-07T00:51:43;16.33;;;4.20;;
60068;SDS011;45945;53.350;55.922;2023-05-07T00:52:45;19.08;;;5.80;;
60068;SDS011;45945;53.350;55.922;2023-05-07T00:53:46;18.67;;;4.72;;
60068;SDS011;45945;53.350;55.922;2023-05-07T00:54:47;12.52;;;4.65;;
60068;SDS011;45945;53.350;55.922;2023-05-07T00:55:48;17.90;;;5.45;;
60068;SDS011;45945;53.350;55.922;2023-05-07T00:56:49;15.13;;;5.22;;
60068;SDS011;45945;53.350;55.922;2023-05-07T00:57:51;20.75;;;5.60;;
60068;SDS011;45945;53.350;55.922;2023-05-07T00:58:52;16.08;;;6.00;;
60068;SDS011;45945;53.350;55.922;2023-05-07T00:59:53;19.30;;;5.40;;
60068;SDS011;45945;53.350;55.922;2023-05-07T01:00:54;15.25;;;4.88;;
60068;SDS011;45945;53.350;55.922;2023-05-07T01:01:55;15.38;;;5.65;;
60068;SDS011;45945;53.350;55.922;2023-05-07T01:02:57;17.23;;;5.55;;
60068;SDS011;45945;53.350;55.922;2023-05-07T01:03:58;19.35;;;5.75;;
60068;SDS011;45945;53.350;55.922;2023-05-07T01:04:59;19.75;;;5.65;;
60068;SDS011;45945;53.350;55.922;2023-05-07T01:06:00;15.73;;;6.22;;
60068;SDS011;45945;53.350;55.922;2023-05-07T01:07:02;20.20;;;5.97;;
60068;SDS011;45945;53.350;55.922;2023-05-07T01:08:04;17.25;;;6.18;;
60068;SDS011;45945;53.350;55.922;2023-05-07T01:09:05;18.17;;;6.90;;
60068;SDS011;45945;53.350;55.922;2023-05-07T01:10:07;18.02;;;6.38;;
60068;SDS011;45945;53.350;55.922;2023-05-07T01:11:08;16.33;;;6.38;;
60068;SDS011;45945;53.350;55.922;2023-05-07T01:12:09;16.55;;;5.68;;
60068;SDS011;45945;53.350;55.922;2023-05-07T01:13:11;20.90;;;6.35;;
60068;SDS011;45945;53.350;55.922;2023-05-07T01:14:13;23.33;;;8.07;;
60068;SDS011;45945;53.350;55.922;2023-05-07T01:15:14;24.80;;;9.07;;
60068;SDS011;45945;53.350;55.922;2023-05-07T01:16:15;19.77;;;7.28;;
60068;SDS011;45945;53.350;55.922;2023-05-07T01:17:16;21.80;;;7.80;;
60068;SDS011;45945;53.350;55.922;2023-05-07T01:18:19;23.95;;;7.18;;
60068;SDS011;45945;53.350;55.922;2023-05-07T01:19:20;18.77;;;6.18;;
60068;SDS011;45945;53.350;55.922;2023-05-07T01:20:21;26.38;;;7.82;;
60068;SDS011;45945;53.350;55.922;2023-05-07T01:21:26;19.30;;;7.25;;
60068;SDS011;45945;53.350;55.922;2023-05-07T01:22:35;21.08;;;6.45;;
60068;SDS011;45945;53.350;55.922;2023-05-07T01:23:40;18.98;;;6.45;;
60068;SDS011;45945;53.350;55.922;2023-05-07T01:24:41;20.05;;;6.78;;
60068;SDS011;45945;53.350;55.922;2023-05-07T01:25:43;19.15;;;6.43;;
60068;SDS011;45945;53.350;55.922;2023-05-07T01:26:45;22.90;;;6.95;;
60068;SDS011;45945;53.350;55.922;2023-05-07T01:27:49;16.10;;;5.78;;
60068;SDS011;45945;53.350;55.922;2023-05-07T01:28:50;19.80;;;5.03;;
60068;SDS011;45945;53.350;55.922;2023-05-07T01:29:51;15.27;;;4.85;;
60068;SDS011;45945;53.350;55.922;2023-05-07T01:30:53;16.08;;;4.88;;
60068;SDS011;45945;53.350;55.922;2023-05-07T01:31:56;18.13;;;4.72;;
60068;SDS011;45945;53.350;55.922;2023-05-07T01:33:01;17.60;;;4.38;;
60068;SDS011;45945;53.350;55.922;2023-05-07T01:34:04;14.80;;;4.60;;
60068;SDS011;45945;53.350;55.922;2023-05-07T01:35:07;17.63;;;4.65;;
60068;SDS011;45945;53.350;55.922;2023-05-07T01:36:10;16.80;;;5.38;;
60068;SDS011;45945;53.350;55.922;2023-05-07T01:37:12;21.23;;;5.38;;
60068;SDS011;45945;53.350;55.922;2023-05-07T01:38:13;19.02;;;4.93;;
60068;SDS011;45945;53.350;55.922;2023-05-07T01:39:14;14.85;;;4.55;;
60068;SDS011;45945;53.350;55.922;2023-05-07T01:40:16;15.98;;;4.03;;
60068;SDS011;45945;53.350;55.922;2023-05-07T01:41:17;16.55;;;4.93;;
60068;SDS011;45945;53.350;55.922;2023-05-07T01:42:18;17.52;;;4.30;;
60068;SDS011;45945;53.350;55.922;2023-05-07T01:43:19;17.95;;;4.50;;
60068;SDS011;45945;53.350;55.922;2023-05-07T01:44:20;20.10;;;5.82;;
60068;SDS011;45945;53.350;55.922;2023-05-07T01:45:22;14.38;;;4.00;;
60068;SDS011;45945;53.350;55.922;2023-05-07T01:46:23;9.30;;;2.85;;
60068;SDS011;45945;53.350;55.922;2023-05-07T01:47:25;19.20;;;5.05;;
60068;SDS011;45945;53.350;55.922;2023-05-07T01:48:26;17.65;;;5.13;;
60068;SDS011;45945;53.350;55.922;2023-05-07T01:49:27;16.85;;;4.55;;
60068;SDS011;45945;53.350;55.922;2023-05-07T01:50:29;17.55;;;4.35;;
60068;SDS011;45945;53.350;55.922;2023-05-07T01:51:31;11.23;;;2.95;;
60068;SDS011;45945;53.350;55.922;2023-05-07T01:52:32;15.27;;;4.70;;
60068;SDS011;45945;53.350;55.922;2023-05-07T01:53:36;14.10;;;5.03;;
60068;SDS011;45945;53.350;55.922;2023-05-07T01:54:37;20.52;;;7.32;;
60068;SDS011;45945;53.350;55.922;2023-05-07T01:55:39;19.15;;;7.00;;
60068;SDS011;45945;53.350;55.922;2023-05-07T01:56:41;21.27;;;6.97;;
60068;SDS011;45945;53.350;55.922;2023-05-07T01:57:42;18.48;;;6.85;;
60068;SDS011;45945;53.350;55.922;2023-05-07T01:58:44;19.20;;;6.78;;
60068;SDS011;45945;53.350;55.922;2023-05-07T01:59:46;23.13;;;6.47;;
60068;SDS011;45945;53.350;55.922;2023-05-07T02:00:47;18.92;;;6.38;;
60068;SDS011;45945;53.350;55.922;2023-05-07T02:01:48;16.85;;;5.28;;
60068;SDS011;45945;53.350;55.922;2023-05-07T02:02:49;14.25;;;4.90;;
60068;SDS011;45945;53.350;55.922;2023-05-07T02:04:03;17.02;;;5.68;;
60068;SDS011;45945;53.350;55.922;2023-05-07T02:05:04;15.70;;;5.00;;
60068;SDS011;45945;53.350;55.922;2023-05-07T02:06:05;12.80;;;4.90;;
60068;SDS011;45945;53.350;55.922;2023-05-07T02:07:09;15.02;;;4.82;;
60068;SDS011;45945;53.350;55.922;2023-05-07T02:08:11;18.35;;;4.47;;
60068;SDS011;45945;53.350;55.922;2023-05-07T02:09:13;15.88;;;4.45;;
60068;SDS011;45945;53.350;55.922;2023-05-07T02:10:17;15.00;;;4.18;;
60068;SDS011;45945;53.350;55.922;2023-05-07T02:11:18;14.63;;;4.35;;
60068;SDS011;45945;53.350;55.922;2023-05-07T02:12:19;17.25;;;4.63;;
60068;SDS011;45945;53.350;55.922;2023-05-07T02:13:20;17.08;;;4.07;;
60068;SDS011;45945;53.350;55.922;2023-05-07T02:14:22;14.30;;;4.35;;
60068;SDS011;45945;53.350;55.922;2023-05-07T02:15:23;13.65;;;3.50;;
60068;SDS011;45945;53.350;55.922;2023-05-07T02:16:26;15.73;;;4.80;;
60068;SDS011;45945;53.350;55.922;2023-05-07T02:17:27;13.50;;;4.03;;
60068;SDS011;45945;53.350;55.922;2023-05-07T02:18:28;12.23;;;3.42;;
60068;SDS011;45945;53.350;55.922;2023-05-07T02:19:29;17.70;;;5.22;;
60068;SDS011;45945;53.350;55.922;2023-05-07T02:20:30;19.35;;;5.32;;
60068;SDS011;45945;53.350;55.922;2023-05-07T02:21:31;15.85;;;5.18;;
60068;SDS011;45945;53.350;55.922;2023-05-07T02:22:32;20.30;;;5.15;;
60068;SDS011;45945;53.350;55.922;2023-05-07T02:23:33;16.88;;;5.38;;
60068;SDS011;45945;53.350;55.922;2023-05-07T02:24:35;14.88;;;5.38;;
60068;SDS011;45945;53.350;55.922;2023-05-07T02:25:36;13.88;;;4.78;;
60068;SDS011;45945;53.350;55.922;2023-05-07T02:26:37;19.80;;;4.88;;
60068;SDS011;45945;53.350;55.922;2023-05-07T02:27:38;14.02;;;4.68;;
60068;SDS011;45945;53.350;55.922;2023-05-07T02:28:39;13.57;;;4.18;;
60068;SDS011;45945;53.350;55.922;2023-05-07T02:29:40;12.60;;;3.35;;
60068;SDS011;45945;53.350;55.922;2023-05-07T02:30:41;20.38;;;5.32;;
60068;SDS011;45945;53.350;55.922;2023-05-07T02:31:43;17.88;;;5.28;;
60068;SDS011;45945;53.350;55.922;2023-05-07T02:32:45;17.58;;;5.20;;
60068;SDS011;45945;53.350;55.922;2023-05-07T02:33:45;19.38;;;5.05;;
60068;SDS011;45945;53.350;55.922;2023-05-07T02:34:49;18.20;;;5.38;;
60068;SDS011;45945;53.350;55.922;2023-05-07T02:35:50;10.18;;;3.55;;
60068;SDS011;45945;53.350;55.922;2023-05-07T02:36:52;17.27;;;5.72;;
60068;SDS011;45945;53.350;55.922;2023-05-07T02:37:56;14.25;;;4.95;;
60068;SDS011;45945;53.350;55.922;2023-05-07T02:38:59;19.42;;;5.50;;
60068;SDS011;45945;53.350;55.922;2023-05-07T02:40:02;17.75;;;5.30;;
60068;SDS011;45945;53.350;55.922;2023-05-07T02:41:05;15.07;;;4.88;;
60068;SDS011;45945;53.350;55.922;2023-05-07T02:42:06;15.45;;;5.60;;
60068;SDS011;45945;53.350;55.922;2023-05-07T02:43:07;16.02;;;5.53;;
60068;SDS011;45945;53.350;55.922;2023-05-07T02:44:08;16.77;;;4.88;;
60068;SDS011;45945;53.350;55.922;2023-05-07T02:45:10;15.85;;;4.90;;
60068;SDS011;45945;53.350;55.922;2023-05-07T02:46:12;15.43;;;5.40;;
60068;SDS011;45945;53.350;55.922;2023-05-07T02:47:17;13.60;;;4.97;;
60068;SDS011;45945;53.350;55.922;2023-05-07T02:48:19;14.20;;;4.82;;
60068;SDS011;45945;53.350;55.922;2023-05-07T02:49:20;16.70;;;5.43;;
60068;SDS011;45945;53.350;55.922;2023-05-07T02:50:21;20.35;;;5.55;;
60068;SDS011;45945;53.350;55.922;2023-05-07T02:51:22;16.35;;;5.32;;
60068;SDS011;45945;53.350;55.922;2023-05-07T02:52:24;16.00;;;5.20;;
60068;SDS011;45945;53.350;55.922;2023-05-07T02:53:25;22.40;;;6.15;;
60068;SDS011;45945;53.350;55.922;2023-05-07T02:54:26;13.52;;;5.18;;
60068;SDS011;45945;53.350;55.922;2023-05-07T02:55:28;15.02;;;5.07;;
60068;SDS011;45945;53.350;55.922;2023-05-07T02:56:29;13.45;;;4.63;;
60068;SDS011;45945;53.350;55.922;2023-05-07T02:57:30;14.25;;;4.55;;
60068;SDS011;45945;53.350;55.922;2023-05-07T02:58:31;17.90;;;5.93;;
60068;SDS011;45945;53.350;55.922;2023-05-07T02:59:34;16.40;;;5.57;;
60068;SDS011;45945;53.350;55.922;2023-05-07T03:00:35;12.07;;;4.55;;
60068;SDS011;45945;53.350;55.922;2023-05-07T03:01:46;9.45;;;3.00;;
60068;SDS011;45945;53.350;55.922;2023-05-07T03:02:47;15.43;;;4.70;;
60068;SDS011;45945;53.350;55.922;2023-05-07T03:03:48;17.35;;;4.85;;
60068;SDS011;45945;53.350;55.922;2023-05-07T03:04:49;16.23;;;5.13;;
60068;SDS011;45945;53.350;55.922;2023-05-07T03:05:50;14.75;;;5.15;;
60068;SDS011;45945;53.350;55.922;2023-05-07T03:06:51;15.18;;;4.95;;
60068;SDS011;45945;53.350;55.922;2023-05-07T03:07:52;12.18;;;4.57;;
60068;SDS011;45945;53.350;55.922;2023-05-07T03:08:53;13.25;;;3.63;;
60068;SDS011;45945;53.350;55.922;2023-05-07T03:09:54;17.25;;;4.93;;
60068;SDS011;45945;53.350;55.922;2023-05-07T03:10:55;14.40;;;4.78;;
60068;SDS011;45945;53.350;55.922;2023-05-07T03:11:57;17.30;;;4.80;;
60068;SDS011;45945;53.350;55.922;2023-05-07T03:12:58;16.23;;;4.82;;
60068;SDS011;45945;53.350;55.922;2023-05-07T03:13:58;18.65;;;5.25;;
60068;SDS011;45945;53.350;55.922;2023-05-07T03:15:00;16.95;;;5.22;;
60068;SDS011;45945;53.350;55.922;2023-05-07T03:16:06;15.02;;;4.35;;
60068;SDS011;45945;53.350;55.922;2023-05-07T03:17:07;12.70;;;4.45;;
60068;SDS011;45945;53.350;55.922;2023-05-07T03:18:08;9.63;;;3.55;;
60068;SDS011;45945;53.350;55.922;2023-05-07T03:19:09;17.77;;;5.18;;
60068;SDS011;45945;53.350;55.922;2023-05-07T03:20:10;16.23;;;4.55;;
60068;SDS011;45945;53.350;55.922;2023-05-07T03:21:12;14.63;;;4.38;;
60068;SDS011;45945;53.350;55.922;2023-05-07T03:22:12;14.73;;;4.35;;
60068;SDS011;45945;53.350;55.922;2023-05-07T03:23:14;16.17;;;5.13;;
60068;SDS011;45945;53.350;55.922;2023-05-07T03:24:15;15.45;;;4.43;;
60068;SDS011;45945;53.350;55.922;2023-05-07T03:25:16;14.32;;;5.07;;
60068;SDS011;45945;53.350;55.922;2023-05-07T03:26:17;13.75;;;4.68;;
60068;SDS011;45945;53.350;55.922;2023-05-07T03:27:19;13.85;;;4.32;;
60068;SDS011;45945;53.350;55.922;2023-05-07T03:28:20;17.42;;;5.10;;
60068;SDS011;45945;53.350;55.922;2023-05-07T03:29:26;14.10;;;4.07;;
60068;SDS011;45945;53.350;55.922;2023-05-07T03:30:27;13.52;;;4.75;;
60068;SDS011;45945;53.350;55.922;2023-05-07T03:31:28;16.90;;;5.18;;
60068;SDS011;45945;53.350;55.922;2023-05-07T03:32:29;13.63;;;4.78;;
60068;SDS011;45945;53.350;55.922;2023-05-07T03:33:32;17.85;;;4.95;;
60068;SDS011;45945;53.350;55.922;2023-05-07T03:34:33;12.43;;;4.00;;
60068;SDS011;45945;53.350;55.922;2023-05-07T03:35:34;17.33;;;4.30;;
60068;SDS011;45945;53.350;55.922;2023-05-07T03:36:35;17.08;;;4.80;;
60068;SDS011;45945;53.350;55.922;2023-05-07T03:37:39;13.45;;;4.80;;
60068;SDS011;45945;53.350;55.922;2023-05-07T03:38:40;17.88;;;5.10;;
60068;SDS011;45945;53.350;55.922;2023-05-07T03:39:41;17.92;;;5.18;;
60068;SDS011;45945;53.350;55.922;2023-05-07T03:40:42;11.07;;;3.50;;
60068;SDS011;45945;53.350;55.922;2023-05-07T03:41:42;15.48;;;4.65;;
60068;SDS011;45945;53.350;55.922;2023-05-07T03:42:44;14.55;;;5.20;;
60068;SDS011;45945;53.350;55.922;2023-05-07T03:43:46;17.10;;;5.15;;
60068;SDS011;45945;53.350;55.922;2023-05-07T03:44:48;14.25;;;4.55;;
60068;SDS011;45945;53.350;55.922;2023-05-07T03:45:49;16.00;;;4.47;;
60068;SDS011;45945;53.350;55.922;2023-05-07T03:46:54;14.68;;;3.75;;
60068;SDS011;45945;53.350;55.922;2023-05-07T03:47:56;11.13;;;4.78;;
60068;SDS011;45945;53.350;55.922;2023-05-07T03:48:57;14.85;;;5.30;;
60068;SDS011;45945;53.350;55.922;2023-05-07T03:49:58;13.63;;;5.88;;
60068;SDS011;45945;53.350;55.922;2023-05-07T03:51:00;11.68;;;4.40;;
60068;SDS011;45945;53.350;55.922;2023-05-07T03:52:05;16.60;;;5.88;;
60068;SDS011;45945;53.350;55.922;2023-05-07T03:53:06;18.88;;;6.68;;
60068;SDS011;45945;53.350;55.922;2023-05-07T03:54:11;13.63;;;5.07;;
60068;SDS011;45945;53.350;55.922;2023-05-07T03:55:17;16.27;;;4.72;;
60068;SDS011;45945;53.350;55.922;2023-05-07T03:56:23;15.32;;;4.50;;
60068;SDS011;45945;53.350;55.922;2023-05-07T03:57:28;10.55;;;4.60;;
60068;SDS011;45945;53.350;55.922;2023-05-07T03:58:30;16.30;;;5.03;;
60068;SDS011;45945;53.350;55.922;2023-05-07T03:59:34;13.18;;;4.55;;
60068;SDS011;45945;53.350;55.922;2023-05-07T04:00:35;16.98;;;5.13;;
60068;SDS011;45945;53.350;55.922;2023-05-07T04:01:46;12.25;;;4.35;;
60068;SDS011;45945;53.350;55.922;2023-05-07T04:02:50;13.63;;;4.32;;
60068;SDS011;45945;53.350;55.922;2023-05-07T04:03:58;14.07;;;5.60;;
60068;SDS011;45945;53.350;55.922;2023-05-07T04:04:59;14.80;;;5.10;;
60068;SDS011;45945;53.350;55.922;2023-05-07T04:06:00;12.60;;;4.70;;
60068;SDS011;45945;53.350;55.922;2023-05-07T04:07:01;14.07;;;4.43;;
60068;SDS011;45945;53.350;55.922;2023-05-07T04:08:02;11.85;;;4.90;;
60068;SDS011;45945;53.350;55.922;2023-05-07T04:09:11;14.18;;;4.90;;
60068;SDS011;45945;53.350;55.922;2023-05-07T04:10:13;16.38;;;5.28;;
60068;SDS011;45945;53.350;55.922;2023-05-07T04:11:17;18.30;;;6.63;;
60068;SDS011;45945;53.350;55.922;2023-05-07T04:12:18;14.38;;;5.18;;
60068;SDS011;45945;53.350;55.922;2023-05-07T04:13:18;15.68;;;5.43;;
60068;SDS011;45945;53.350;55.922;2023-05-07T04:14:20;13.82;;;6.05;;
60068;SDS011;45945;53.350;55.922;2023-05-07T04:15:21;18.58;;;5.90;;
60068;SDS011;45945;53.350;55.922;2023-05-07T04:16:22;18.77;;;6.53;;
60068;SDS011;45945;53.350;55.922;2023-05-07T04:17:23;19.23;;;6.78;;
60068;SDS011;45945;53.350;55.922;2023-05-07T04:18:28;19.13;;;6.75;;
60068;SDS011;45945;53.350;55.922;2023-05-07T04:19:29;11.88;;;5.65;;
60068;SDS011;45945;53.350;55.922;2023-05-07T04:20:30;18.17;;;8.10;;
60068;SDS011;45945;53.350;55.922;2023-05-07T04:21:35;17.38;;;7.88;;
60068;SDS011;45945;53.350;55.922;2023-05-07T04:22:36;19.23;;;7.97;;
60068;SDS011;45945;53.350;55.922;2023-05-07T04:23:38;16.92;;;8.57;;
60068;SDS011;45945;53.350;55.922;2023-05-07T04:24:43;16.85;;;8.43;;
60068;SDS011;45945;53.350;55.922;2023-05-07T04:25:44;19.48;;;9.20;;
60068;SDS011;45945;53.350;55.922;2023-05-07T04:26:58;19.25;;;9.27;;
60068;SDS011;45945;53.350;55.922;2023-05-07T04:27:59;19.45;;;8.73;;
60068;SDS011;45945;53.350;55.922;2023-05-07T04:29:02;20.05;;;8.75;;
60068;SDS011;45945;53.350;55.922;2023-05-07T04:30:07;19.67;;;8.68;;
60068;SDS011;45945;53.350;55.922;2023-05-07T04:31:12;17.52;;;8.80;;
60068;SDS011;45945;53.350;55.922;2023-05-07T04:32:13;17.23;;;9.20;;
60068;SDS011;45945;53.350;55.922;2023-05-07T04:33:15;19.63;;;9.63;;
60068;SDS011;45945;53.350;55.922;2023-05-07T04:34:20;19.92;;;9.07;;
60068;SDS011;45945;53.350;55.922;2023-05-07T04:35:22;18.40;;;8.02;;
60068;SDS011;45945;53.350;55.922;2023-05-07T04:36:23;16.63;;;9.18;;
60068;SDS011;45945;53.350;55.922;2023-05-07T04:37:31;21.02;;;8.38;;
60068;SDS011;45945;53.350;55.922;2023-05-07T04:38:32;17.25;;;8.20;;
60068;SDS011;45945;53.350;55.922;2023-05-07T04:39:35;15.43;;;8.10;;
60068;SDS011;45945;53.350;55.922;2023-05-07T04:40:37;18.08;;;8.70;;
60068;SDS011;45945;53.350;55.922;2023-05-07T04:41:38;20.50;;;8.10;;
60068;SDS011;45945;53.350;55.922;2023-05-07T04:42:40;19.23;;;7.50;;
60068;SDS011;45945;53.350;55.922;2023-05-07T04:43:42;15.07;;;7.80;;
60068;SDS011;45945;53.350;55.922;2023-05-07T04:44:45;15.68;;;7.10;;
60068;SDS011;45945;53.350;55.922;2023-05-07T04:45:49;19.52;;;8.63;;
60068;SDS011;45945;53.350;55.922;2023-05-07T04:46:50;15.23;;;8.13;;
60068;SDS011;45945;53.350;55.922;2023-05-07T04:47:51;15.48;;;8.07;;
60068;SDS011;45945;53.350;55.922;2023-05-07T04:48:52;12.75;;;7.22;;
60068;SDS011;45945;53.350;55.922;2023-05-07T04:49:53;13.57;;;6.20;;
60068;SDS011;45945;53.350;55.922;2023-05-07T04:50:54;18.08;;;6.85;;
60068;SDS011;45945;53.350;55.922;2023-05-07T04:51:55;17.50;;;6.60;;
60068;SDS011;45945;53.350;55.922;2023-05-07T04:52:58;16.85;;;6.00;;
60068;SDS011;45945;53.350;55.922;2023-05-07T04:53:59;13.70;;;6.00;;
60068;SDS011;45945;53.350;55.922;2023-05-07T04:55:02;14.65;;;5.97;;
60068;SDS011;45945;53.350;55.922;2023-05-07T04:56:09;14.15;;;6.47;;
60068;SDS011;45945;53.350;55.922;2023-05-07T04:57:15;13.52;;;5.50;;
60068;SDS011;45945;53.350;55.922;2023-05-07T04:58:18;11.20;;;5.68;;
60068;SDS011;45945;53.350;55.922;2023-05-07T04:59:21;14.45;;;4.80;;
60068;SDS011;45945;53.350;55.922;2023-05-07T05:00:22;12.02;;;3.72;;
60068;SDS011;45945;53.350;55.922;2023-05-07T05:01:26;8.05;;;3.20;;
60068;SDS011;45945;53.350;55.922;2023-05-07T05:02:26;10.30;;;3.45;;
60068;SDS011;45945;53.350;55.922;2023-05-07T05:03:27;10.70;;;3.58;;
60068;SDS011;45945;53.350;55.922;2023-05-07T05:04:29;9.35;;;2.97;;
60068;SDS011;45945;53.350;55.922;2023-05-07T05:05:30;10.55;;;3.70;;
60068;SDS011;45945;53.350;55.922;2023-05-07T05:06:32;9.80;;;3.90;;
60068;SDS011;45945;53.350;55.922;2023-05-07T05:07:39;7.93;;;2.90;;
60068;SDS011;45945;53.350;55.922;2023-05-07T05:08:43;17.65;;;3.47;;
60068;SDS011;45945;53.350;55.922;2023-05-07T05:09:45;10.90;;;3.45;;
60068;SDS011;45945;53.350;55.922;2023-05-07T05:10:47;9.23;;;1.88;;
60068;SDS011;45945;53.350;55.922;2023-05-07T05:11:50;11.90;;;2.63;;
60068;SDS011;45945;53.350;55.922;2023-05-07T05:12:51;14.98;;;2.97;;
60068;SDS011;45945;53.350;55.922;2023-05-07T05:13:52;11.73;;;2.10;;
60068;SDS011;45945;53.350;55.922;2023-05-07T05:14:55;30.80;;;4.53;;
60068;SDS011;45945;53.350;55.922;2023-05-07T05:15:56;18.05;;;3.97;;
60068;SDS011;45945;53.350;55.922;2023-05-07T05:16:57;19.90;;;3.85;;
60068;SDS011;45945;53.350;55.922;2023-05-07T05:17:58;11.95;;;3.03;;
60068;SDS011;45945;53.350;55.922;2023-05-07T05:19:01;24.98;;;4.35;;
60068;SDS011;45945;53.350;55.922;2023-05-07T05:20:02;14.20;;;2.92;;
60068;SDS011;45945;53.350;55.922;2023-05-07T05:21:05;22.33;;;3.10;;
60068;SDS011;45945;53.350;55.922;2023-05-07T05:22:07;13.80;;;2.20;;
60068;SDS011;45945;53.350;55.922;2023-05-07T05:23:08;16.50;;;3.08;;
60068;SDS011;45945;53.350;55.922;2023-05-07T05:24:09;12.45;;;2.28;;
60068;SDS011;45945;53.350;55.922;2023-05-07T05:25:10;12.00;;;2.95;;
60068;SDS011;45945;53.350;55.922;2023-05-07T05:26:11;15.57;;;2.95;;
60068;SDS011;45945;53.350;55.922;2023-05-07T05:27:12;15.50;;;5.72;;
60068;SDS011;45945;53.350;55.922;2023-05-07T05:28:14;13.77;;;2.92;;
60068;SDS011;45945;53.350;55.922;2023-05-07T05:29:14;11.00;;;3.72;;
60068;SDS011;45945;53.350;55.922;2023-05-07T05:30:16;9.38;;;3.65;;
60068;SDS011;45945;53.350;55.922;2023-05-07T05:31:20;8.77;;;2.78;;
60068;SDS011;45945;53.350;55.922;2023-05-07T05:32:23;10.55;;;2.50;;
60068;SDS011;45945;53.350;55.922;2023-05-07T05:33:27;6.20;;;2.30;;
60068;SDS011;45945;53.350;55.922;2023-05-07T05:34:33;9.00;;;2.38;;
60068;SDS011;45945;53.350;55.922;2023-05-07T05:35:35;6.75;;;2.17;;
60068;SDS011;45945;53.350;55.922;2023-05-07T05:36:38;7.07;;;2.63;;
60068;SDS011;45945;53.350;55.922;2023-05-07T05:37:39;7.50;;;2.30;;
60068;SDS011;45945;53.350;55.922;2023-05-07T05:38:41;6.63;;;2.58;;
60068;SDS011;45945;53.350;55.922;2023-05-07T05:39:43;7.25;;;2.50;;
60068;SDS011;45945;53.350;55.922;2023-05-07T05:40:44;7.60;;;2.83;;
60068;SDS011;45945;53.350;55.922;2023-05-07T05:41:46;12.32;;;3.40;;
60068;SDS011;45945;53.350;55.922;2023-05-07T05:42:47;9.10;;;2.35;;
60068;SDS011;45945;53.350;55.922;2023-05-07T05:43:48;11.10;;;2.38;;
60068;SDS011;45945;53.350;55.922;2023-05-07T05:44:50;7.30;;;2.10;;
60068;SDS011;45945;53.350;55.922;2023-05-07T05:45:51;8.65;;;3.20;;
60068;SDS011;45945;53.350;55.922;2023-05-07T05:46:52;10.20;;;2.83;;
60068;SDS011;45945;53.350;55.922;2023-05-07T05:47:56;6.38;;;2.20;;
60068;SDS011;45945;53.350;55.922;2023-05-07T05:48:57;6.07;;;1.80;;
60068;SDS011;45945;53.350;55.922;2023-05-07T05:49:58;6.75;;;2.60;;
60068;SDS011;45945;53.350;55.922;2023-05-07T05:50:59;7.88;;;2.63;;
60068;SDS011;45945;53.350;55.922;2023-05-07T05:52:00;4.15;;;1.80;;
60068;SDS011;45945;53.350;55.922;2023-05-07T05:53:02;4.60;;;1.98;;
60068;SDS011;45945;53.350;55.922;2023-05-07T05:54:03;6.32;;;2.33;;
60068;SDS011;45945;53.350;55.922;2023-05-07T05:55:06;10.73;;;3.65;;
60068;SDS011;45945;53.350;55.922;2023-05-07T05:56:07;5.95;;;2.38;;
60068;SDS011;45945;53.350;55.922;2023-05-07T05:57:08;11.10;;;2.67;;
60068;SDS011;45945;53.350;55.922;2023-05-07T05:58:10;6.22;;;2.28;;
60068;SDS011;45945;53.350;55.922;2023-05-07T05:59:14;8.73;;;2.80;;
60068;SDS011;45945;53.350;55.922;2023-05-07T06:00:15;8.32;;;2.85;;
60068;SDS011;45945;53.350;55.922;2023-05-07T06:01:19;9.27;;;3.03;;
60068;SDS011;45945;53.350;55.922;2023-05-07T06:02:21;9.80;;;2.83;;
60068;SDS011;45945;53.350;55.922;2023-05-07T06:03:22;6.60;;;2.72;;